sensor_id;sensor_type;location;lat;lon;timestamp;pressure;altitude;pressure_sealevel;temperature;humidity
43161;BME280;40968;52.342;5.528;2022-08-21T00:02:14;101739.81;;;18.69;60.19
43161;BME280;40968;52.342;5.528;2022-08-21T00:04:42;101739.50;;;18.72;60.86
43161;BME280;40968;52.342;5.528;2022-08-21T00:07:09;101676.41;;;18.40;60.30
43161;BME280;40968;52.342;5.528;2022-08-21T00:09:36;101734.94;;;18.72;60.42
43161;BME280;40968;52.342;5.528;2022-08-21T00:12:03;101726.97;;;18.71;60.70
43161;BME280;40968;52.342;5.528;2022-08-21T00:14:30;101635.03;;;18.09;60.20
43161;BME280;40968;52.342;5.528;2022-08-21T00:16:57;101616.22;;;17.98;60.43
43161;BME280;40968;52.342;5.528;2022-08-21T00:19:23;101697.81;;;18.53;60.18
43161;BME280;40968;52.342;5.528;2022-08-21T00:21:52;101683.56;;;18.42;59.95
43161;BME280;40968;52.342;5.528;2022-08-21T00:24:20;101653.63;;;18.23;60.43
43161;BME280;40968;52.342;5.528;2022-08-21T00:26:47;101727.22;;;18.68;60.57
43161;BME280;40968;52.342;5.528;2022-08-21T00:29:14;101670.72;;;18.34;60.06
43161;BME280;40968;52.342;5.528;2022-08-21T00:31:42;101596.38;;;17.87;59.96
43161;BME280;40968;52.342;5.528;2022-08-21T00:34:09;101671.31;;;18.28;59.86
43161;BME280;40968;52.342;5.528;2022-08-21T00:36:37;101702.13;;;18.46;60.45
43161;BME280;40968;52.342;5.528;2022-08-21T00:39:05;101670.75;;;18.24;60.28
43161;BME280;40968;52.342;5.528;2022-08-21T00:41:35;101719.84;;;18.50;59.96
43161;BME280;40968;52.342;5.528;2022-08-21T00:44:02;101625.66;;;17.94;60.14
43161;BME280;40968;52.342;5.528;2022-08-21T00:46:29;101500.22;;;17.13;59.95
43161;BME280;40968;52.342;5.528;2022-08-21T00:48:56;101649.78;;;17.97;59.95
43161;BME280;40968;52.342;5.528;2022-08-21T00:51:25;101663.63;;;18.13;59.85
43161;BME280;40968;52.342;5.528;2022-08-21T00:53:58;101635.16;;;17.88;59.71
43161;BME280;40968;52.342;5.528;2022-08-21T00:56:27;101663.03;;;18.00;59.87
43161;BME280;40968;52.342;5.528;2022-08-21T00:58:55;101652.47;;;17.87;59.63
43161;BME280;40968;52.342;5.528;2022-08-21T01:01:23;101638.44;;;17.72;60.14
43161;BME280;40968;52.342;5.528;2022-08-21T01:03:50;101723.84;;;18.17;60.47
43161;BME280;40968;52.342;5.528;2022-08-21T01:06:17;101689.44;;;17.98;60.46
43161;BME280;40968;52.342;5.528;2022-08-21T01:08:44;101709.31;;;18.08;60.77
43161;BME280;40968;52.342;5.528;2022-08-21T01:11:12;101623.59;;;17.56;60.71
43161;BME280;40968;52.342;5.528;2022-08-21T01:13:40;101674.28;;;17.85;60.50
43161;BME280;40968;52.342;5.528;2022-08-21T01:16:12;101703.16;;;18.06;61.31
43161;BME280;40968;52.342;5.528;2022-08-21T01:18:40;101663.88;;;17.81;60.66
43161;BME280;40968;52.342;5.528;2022-08-21T01:21:11;101708.72;;;18.14;60.86
43161;BME280;40968;52.342;5.528;2022-08-21T01:23:41;101714.44;;;18.11;60.75
43161;BME280;40968;52.342;5.528;2022-08-21T01:26:08;101710.28;;;18.07;60.52
43161;BME280;40968;52.342;5.528;2022-08-21T01:28:38;101713.31;;;18.04;60.43
43161;BME280;40968;52.342;5.528;2022-08-21T01:31:06;101613.59;;;17.37;60.35
43161;BME280;40968;52.342;5.528;2022-08-21T01:33:34;101711.41;;;17.95;60.77
43161;BME280;40968;52.342;5.528;2022-08-21T01:36:00;101538.38;;;16.90;60.82
43161;BME280;40968;52.342;5.528;2022-08-21T01:38:28;101586.72;;;17.15;61.21
43161;BME280;40968;52.342;5.528;2022-08-21T01:40:55;101705.22;;;17.83;61.22
43161;BME280;40968;52.342;5.528;2022-08-21T01:43:22;101701.53;;;17.74;61.32
43161;BME280;40968;52.342;5.528;2022-08-21T01:45:48;101519.63;;;16.68;61.55
43161;BME280;40968;52.342;5.528;2022-08-21T01:48:15;101675.09;;;17.56;61.72
43161;BME280;40968;52.342;5.528;2022-08-21T01:50:41;101619.28;;;17.24;61.14
43161;BME280;40968;52.342;5.528;2022-08-21T01:53:08;101703.50;;;17.72;61.60
43161;BME280;40968;52.342;5.528;2022-08-21T01:55:36;101509.88;;;16.46;61.20
43161;BME280;40968;52.342;5.528;2022-08-21T01:58:02;101656.91;;;17.28;61.25
43161;BME280;40968;52.342;5.528;2022-08-21T02:00:29;101704.50;;;17.61;61.23
43161;BME280;40968;52.342;5.528;2022-08-21T02:02:55;101653.22;;;17.29;61.50
43161;BME280;40968;52.342;5.528;2022-08-21T02:05:22;101708.63;;;17.55;61.73
43161;BME280;40968;52.342;5.528;2022-08-21T02:07:51;101699.78;;;17.53;61.63
43161;BME280;40968;52.342;5.528;2022-08-21T02:10:20;101698.03;;;17.52;61.76
43161;BME280;40968;52.342;5.528;2022-08-21T02:12:48;101696.63;;;17.48;61.81
43161;BME280;40968;52.342;5.528;2022-08-21T02:15:15;101489.41;;;16.22;61.83
43161;BME280;40968;52.342;5.528;2022-08-21T02:17:44;101675.72;;;17.19;62.34
43161;BME280;40968;52.342;5.528;2022-08-21T02:20:15;101679.16;;;17.31;61.98
43161;BME280;40968;52.342;5.528;2022-08-21T02:22:42;101407.56;;;15.68;62.25
43161;BME280;40968;52.342;5.528;2022-08-21T02:25:09;101681.72;;;17.33;62.13
43161;BME280;40968;52.342;5.528;2022-08-21T02:27:38;101652.31;;;17.09;62.25
43161;BME280;40968;52.342;5.528;2022-08-21T02:30:08;101678.13;;;17.22;62.38
43161;BME280;40968;52.342;5.528;2022-08-21T02:32:35;101567.69;;;16.54;62.77
43161;BME280;40968;52.342;5.528;2022-08-21T02:35:03;101609.94;;;16.77;62.71
43161;BME280;40968;52.342;5.528;2022-08-21T02:37:29;101676.09;;;17.15;63.14
43161;BME280;40968;52.342;5.528;2022-08-21T02:39:56;101677.38;;;17.11;62.99
43161;BME280;40968;52.342;5.528;2022-08-21T02:42:22;101679.94;;;17.12;63.36
43161;BME280;40968;52.342;5.528;2022-08-21T02:44:49;101603.59;;;16.56;63.41
43161;BME280;40968;52.342;5.528;2022-08-21T02:47:17;101603.22;;;16.61;63.26
43161;BME280;40968;52.342;5.528;2022-08-21T02:49:43;101673.22;;;17.06;63.12
43161;BME280;40968;52.342;5.528;2022-08-21T02:52:10;101602.47;;;16.59;63.56
43161;BME280;40968;52.342;5.528;2022-08-21T02:54:37;101578.63;;;16.43;63.11
43161;BME280;40968;52.342;5.528;2022-08-21T02:57:03;101670.75;;;16.94;63.59
43161;BME280;40968;52.342;5.528;2022-08-21T02:59:30;101642.31;;;16.78;63.96
43161;BME280;40968;52.342;5.528;2022-08-21T03:01:57;101648.44;;;16.80;63.75
43161;BME280;40968;52.342;5.528;2022-08-21T03:04:25;101585.88;;;16.42;63.93
43161;BME280;40968;52.342;5.528;2022-08-21T03:06:52;101566.47;;;16.37;63.90
43161;BME280;40968;52.342;5.528;2022-08-21T03:09:18;101650.31;;;16.89;63.87
43161;BME280;40968;52.342;5.528;2022-08-21T03:11:45;101589.03;;;16.48;63.80
43161;BME280;40968;52.342;5.528;2022-08-21T03:14:11;101626.44;;;16.64;64.06
43161;BME280;40968;52.342;5.528;2022-08-21T03:16:38;101464.56;;;15.65;63.87
43161;BME280;40968;52.342;5.528;2022-08-21T03:19:04;101651.09;;;16.70;64.35
43161;BME280;40968;52.342;5.528;2022-08-21T03:21:32;101657.09;;;16.74;64.63
43161;BME280;40968;52.342;5.528;2022-08-21T03:23:59;101601.53;;;16.39;64.25
43161;BME280;40968;52.342;5.528;2022-08-21T03:26:25;101657.66;;;16.68;64.64
43161;BME280;40968;52.342;5.528;2022-08-21T03:28:52;101650.91;;;16.62;64.99
43161;BME280;40968;52.342;5.528;2022-08-21T03:31:18;101624.06;;;16.49;64.45
43161;BME280;40968;52.342;5.528;2022-08-21T03:33:46;101652.47;;;16.65;64.76
43161;BME280;40968;52.342;5.528;2022-08-21T03:36:13;101647.50;;;16.60;64.76
43161;BME280;40968;52.342;5.528;2022-08-21T03:38:41;101650.06;;;16.62;65.05
43161;BME280;40968;52.342;5.528;2022-08-21T03:41:08;101645.78;;;16.59;65.02
43161;BME280;40968;52.342;5.528;2022-08-21T03:43:35;101416.06;;;15.21;65.60
43161;BME280;40968;52.342;5.528;2022-08-21T03:46:02;101595.44;;;16.25;64.94
43161;BME280;40968;52.342;5.528;2022-08-21T03:48:30;101644.03;;;16.58;65.13
43161;BME280;40968;52.342;5.528;2022-08-21T03:50:56;101502.91;;;15.58;64.96
43161;BME280;40968;52.342;5.528;2022-08-21T03:53:23;101559.38;;;15.94;65.17
43161;BME280;40968;52.342;5.528;2022-08-21T03:55:52;101584.97;;;16.11;65.40
43161;BME280;40968;52.342;5.528;2022-08-21T03:58:21;101601.72;;;16.26;65.29
43161;BME280;40968;52.342;5.528;2022-08-21T04:00:51;101586.44;;;16.15;65.69
43161;BME280;40968;52.342;5.528;2022-08-21T04:03:19;101614.28;;;16.27;65.48
43161;BME280;40968;52.342;5.528;2022-08-21T04:05:46;101635.28;;;16.45;65.45
43161;BME280;40968;52.342;5.528;2022-08-21T04:08:14;101445.50;;;15.24;65.41
43161;BME280;40968;52.342;5.528;2022-08-21T04:10:43;101569.06;;;15.97;65.53
43161;BME280;40968;52.342;5.528;2022-08-21T04:13:12;101331.34;;;14.47;65.06
43161;BME280;40968;52.342;5.528;2022-08-21T04:15:40;101623.88;;;16.20;65.53
43161;BME280;40968;52.342;5.528;2022-08-21T04:18:07;101359.53;;;14.54;65.30
43161;BME280;40968;52.342;5.528;2022-08-21T04:20:35;101461.16;;;15.09;65.57
43161;BME280;40968;52.342;5.528;2022-08-21T04:23:02;101612.88;;;15.90;65.80
43161;BME280;40968;52.342;5.528;2022-08-21T04:25:29;101512.75;;;15.27;65.79
43161;BME280;40968;52.342;5.528;2022-08-21T04:27:55;101653.09;;;16.05;66.27
43161;BME280;40968;52.342;5.528;2022-08-21T04:30:23;101644.75;;;15.97;66.51
43161;BME280;40968;52.342;5.528;2022-08-21T04:32:51;101613.91;;;15.67;66.52
43161;BME280;40968;52.342;5.528;2022-08-21T04:35:20;101657.34;;;15.86;66.95
43161;BME280;40968;52.342;5.528;2022-08-21T04:37:47;101608.28;;;15.58;66.81
43161;BME280;40968;52.342;5.528;2022-08-21T04:40:16;101629.88;;;15.70;67.07
43161;BME280;40968;52.342;5.528;2022-08-21T04:42:45;101549.50;;;15.18;67.16
43161;BME280;40968;52.342;5.528;2022-08-21T04:45:17;101638.59;;;15.73;67.41
43161;BME280;40968;52.342;5.528;2022-08-21T04:47:47;101589.94;;;15.41;67.99
43161;BME280;40968;52.342;5.528;2022-08-21T04:50:14;101642.88;;;15.76;67.93
43161;BME280;40968;52.342;5.528;2022-08-21T04:52:40;101587.72;;;15.46;67.71
43161;BME280;40968;52.342;5.528;2022-08-21T04:55:07;101609.41;;;15.56;67.81
43161;BME280;40968;52.342;5.528;2022-08-21T04:57:34;101448.66;;;14.53;67.81
43161;BME280;40968;52.342;5.528;2022-08-21T05:00:03;101646.56;;;15.75;67.87
43161;BME280;40968;52.342;5.528;2022-08-21T05:02:30;101647.91;;;15.69;67.83
43161;BME280;40968;52.342;5.528;2022-08-21T05:04:59;101525.28;;;14.84;68.22
43161;BME280;40968;52.342;5.528;2022-08-21T05:07:29;101651.28;;;15.62;68.25
43161;BME280;40968;52.342;5.528;2022-08-21T05:09:56;101631.41;;;15.51;68.39
43161;BME280;40968;52.342;5.528;2022-08-21T05:12:22;101656.41;;;15.65;68.33
43161;BME280;40968;52.342;5.528;2022-08-21T05:14:49;101652.25;;;15.61;68.36
43161;BME280;40968;52.342;5.528;2022-08-21T05:17:16;101630.66;;;15.49;68.56
43161;BME280;40968;52.342;5.528;2022-08-21T05:19:42;101668.41;;;15.72;68.47
43161;BME280;40968;52.342;5.528;2022-08-21T05:22:10;101666.44;;;15.74;68.50
43161;BME280;40968;52.342;5.528;2022-08-21T05:24:37;101551.47;;;15.05;68.64
43161;BME280;40968;52.342;5.528;2022-08-21T05:27:04;101666.19;;;15.77;68.73
43161;BME280;40968;52.342;5.528;2022-08-21T05:29:32;101668.66;;;15.80;68.56
43161;BME280;40968;52.342;5.528;2022-08-21T05:31:58;101636.88;;;15.61;68.50
43161;BME280;40968;52.342;5.528;2022-08-21T05:34:25;101363.03;;;13.88;68.59
43161;BME280;40968;52.342;5.528;2022-08-21T05:36:52;101592.66;;;15.30;68.50
43161;BME280;40968;52.342;5.528;2022-08-21T05:39:19;101678.72;;;15.78;68.72
43161;BME280;40968;52.342;5.528;2022-08-21T05:41:46;101588.22;;;15.29;68.88
43161;BME280;40968;52.342;5.528;2022-08-21T05:44:13;101518.66;;;14.88;68.78
43161;BME280;40968;52.342;5.528;2022-08-21T05:46:40;101580.13;;;15.29;68.67
43161;BME280;40968;52.342;5.528;2022-08-21T05:49:07;101552.44;;;15.15;68.77
43161;BME280;40968;52.342;5.528;2022-08-21T05:51:34;101686.56;;;15.93;68.78
43161;BME280;40968;52.342;5.528;2022-08-21T05:54:00;101549.22;;;15.21;68.87
43161;BME280;40968;52.342;5.528;2022-08-21T05:56:28;101671.56;;;16.00;68.80
43161;BME280;40968;52.342;5.528;2022-08-21T05:58:55;101491.13;;;14.95;69.01
43161;BME280;40968;52.342;5.528;2022-08-21T06:01:21;101671.75;;;16.08;68.74
43161;BME280;40968;52.342;5.528;2022-08-21T06:03:48;101591.59;;;15.53;68.81
43161;BME280;40968;52.342;5.528;2022-08-21T06:06:15;101640.75;;;15.91;69.00
43161;BME280;40968;52.342;5.528;2022-08-21T06:08:42;101631.03;;;15.88;68.68
43161;BME280;40968;52.342;5.528;2022-08-21T06:11:09;101666.78;;;16.24;68.64
43161;BME280;40968;52.342;5.528;2022-08-21T06:13:37;101667.25;;;16.30;68.68
43161;BME280;40968;52.342;5.528;2022-08-21T06:16:06;101637.06;;;16.13;68.81
43161;BME280;40968;52.342;5.528;2022-08-21T06:18:33;101636.56;;;16.19;68.63
43161;BME280;40968;52.342;5.528;2022-08-21T06:21:00;101664.22;;;16.44;68.33
43161;BME280;40968;52.342;5.528;2022-08-21T06:23:26;101578.44;;;15.93;68.59
43161;BME280;40968;52.342;5.528;2022-08-21T06:25:53;101618.63;;;16.18;68.82
43161;BME280;40968;52.342;5.528;2022-08-21T06:28:20;101636.22;;;16.34;68.83
43161;BME280;40968;52.342;5.528;2022-08-21T06:30:48;101666.28;;;16.62;68.86
43161;BME280;40968;52.342;5.528;2022-08-21T06:33:14;101560.84;;;15.98;68.82
43161;BME280;40968;52.342;5.528;2022-08-21T06:35:41;101639.16;;;16.52;68.93
43161;BME280;40968;52.342;5.528;2022-08-21T06:38:08;101597.16;;;16.27;68.88
43161;BME280;40968;52.342;5.528;2022-08-21T06:40:35;101668.66;;;16.76;68.90
43161;BME280;40968;52.342;5.528;2022-08-21T06:43:06;101601.25;;;16.42;68.92
43161;BME280;40968;52.342;5.528;2022-08-21T06:45:33;101669.56;;;16.86;68.70
43161;BME280;40968;52.342;5.528;2022-08-21T06:48:01;101679.88;;;16.93;68.94
43161;BME280;40968;52.342;5.528;2022-08-21T06:50:28;101621.03;;;16.64;68.73
43161;BME280;40968;52.342;5.528;2022-08-21T06:53:00;101540.19;;;16.18;68.97
43161;BME280;40968;52.342;5.528;2022-08-21T06:55:27;101673.22;;;17.06;69.04
43161;BME280;40968;52.342;5.528;2022-08-21T06:57:53;101516.25;;;16.14;69.00
43161;BME280;40968;52.342;5.528;2022-08-21T07:00:20;101595.94;;;16.62;69.06
43161;BME280;40968;52.342;5.528;2022-08-21T07:02:47;101676.84;;;17.17;68.72
43161;BME280;40968;52.342;5.528;2022-08-21T07:05:15;101511.44;;;16.17;68.93
43161;BME280;40968;52.342;5.528;2022-08-21T07:07:41;101595.03;;;16.82;69.01
43161;BME280;40968;52.342;5.528;2022-08-21T07:10:08;101558.34;;;16.68;69.54
43161;BME280;40968;52.342;5.528;2022-08-21T07:12:35;101671.94;;;17.42;69.34
43161;BME280;40968;52.342;5.528;2022-08-21T07:15:02;101466.19;;;16.19;69.27
43161;BME280;40968;52.342;5.528;2022-08-21T07:17:29;101676.22;;;17.54;69.73
43161;BME280;40968;52.342;5.528;2022-08-21T07:19:55;101656.50;;;17.42;69.84
43161;BME280;40968;52.342;5.528;2022-08-21T07:22:24;101630.44;;;17.41;69.68
43161;BME280;40968;52.342;5.528;2022-08-21T07:24:52;101622.47;;;17.49;69.78
43161;BME280;40968;52.342;5.528;2022-08-21T07:27:19;101633.88;;;17.63;69.41
43161;BME280;40968;52.342;5.528;2022-08-21T07:29:45;101664.63;;;17.93;69.47
43161;BME280;40968;52.342;5.528;2022-08-21T07:32:13;101441.56;;;16.63;69.12
43161;BME280;40968;52.342;5.528;2022-08-21T07:34:40;101419.03;;;16.53;69.08
43161;BME280;40968;52.342;5.528;2022-08-21T07:37:07;101636.50;;;17.94;69.17
43161;BME280;40968;52.342;5.528;2022-08-21T07:39:35;101556.69;;;17.47;68.95
43161;BME280;40968;52.342;5.528;2022-08-21T07:42:02;101590.66;;;17.71;69.02
43161;BME280;40968;52.342;5.528;2022-08-21T07:44:29;101596.25;;;17.79;68.68
43161;BME280;40968;52.342;5.528;2022-08-21T07:46:55;101686.72;;;18.37;68.77
43161;BME280;40968;52.342;5.528;2022-08-21T07:49:22;101675.28;;;18.43;68.73
43161;BME280;40968;52.342;5.528;2022-08-21T07:51:48;101671.28;;;18.47;68.40
43161;BME280;40968;52.342;5.528;2022-08-21T07:54:15;101603.38;;;18.00;68.33
43161;BME280;40968;52.342;5.528;2022-08-21T07:56:43;101387.59;;;16.81;68.10
43161;BME280;40968;52.342;5.528;2022-08-21T07:59:09;101681.81;;;18.70;68.47
43161;BME280;40968;52.342;5.528;2022-08-21T08:01:36;101414.13;;;17.17;67.62
43161;BME280;40968;52.342;5.528;2022-08-21T08:04:03;101676.06;;;18.83;68.22
43161;BME280;40968;52.342;5.528;2022-08-21T08:06:30;101667.19;;;18.91;68.18
43161;BME280;40968;52.342;5.528;2022-08-21T08:08:56;101530.56;;;18.05;67.70
43161;BME280;40968;52.342;5.528;2022-08-21T08:11:23;101605.28;;;18.56;67.72
43161;BME280;40968;52.342;5.528;2022-08-21T08:13:52;101623.59;;;18.82;67.91
43161;BME280;40968;52.342;5.528;2022-08-21T08:16:18;101620.59;;;18.85;67.49
43161;BME280;40968;52.342;5.528;2022-08-21T08:18:45;101650.81;;;19.10;67.57
43161;BME280;40968;52.342;5.528;2022-08-21T08:21:12;101497.13;;;18.24;67.62
43161;BME280;40968;52.342;5.528;2022-08-21T08:23:39;101612.78;;;19.10;67.05
43161;BME280;40968;52.342;5.528;2022-08-21T08:26:06;101607.03;;;19.13;67.00
43161;BME280;40968;52.342;5.528;2022-08-21T08:28:33;101658.44;;;19.52;66.44
43161;BME280;40968;52.342;5.528;2022-08-21T08:31:01;101626.66;;;19.35;66.25
43161;BME280;40968;52.342;5.528;2022-08-21T08:33:28;101607.75;;;19.33;66.35
43161;BME280;40968;52.342;5.528;2022-08-21T08:35:54;101611.44;;;19.42;66.09
43161;BME280;40968;52.342;5.528;2022-08-21T08:38:23;101581.47;;;19.34;65.80
43161;BME280;40968;52.342;5.528;2022-08-21T08:40:55;101591.31;;;19.53;65.79
43161;BME280;40968;52.342;5.528;2022-08-21T08:43:26;101533.31;;;19.26;65.71
43161;BME280;40968;52.342;5.528;2022-08-21T08:45:54;101602.03;;;19.72;65.21
43161;BME280;40968;52.342;5.528;2022-08-21T08:48:40;101380.03;;;18.47;64.69
43161;BME280;40968;52.342;5.528;2022-08-21T08:51:15;101670.78;;;20.37;64.60
43161;BME280;40968;52.342;5.528;2022-08-21T08:53:49;101613.47;;;20.12;64.14
43161;BME280;40968;52.342;5.528;2022-08-21T08:56:21;101533.66;;;19.67;63.47
43161;BME280;40968;52.342;5.528;2022-08-21T08:58:50;101404.16;;;18.96;62.58
43161;BME280;40968;52.342;5.528;2022-08-21T09:01:19;101565.00;;;19.90;62.63
43161;BME280;40968;52.342;5.528;2022-08-21T09:03:48;101387.38;;;19.00;62.10
43161;BME280;40968;52.342;5.528;2022-08-21T09:06:19;101655.25;;;20.74;62.13
43161;BME280;40968;52.342;5.528;2022-08-21T09:08:55;101564.25;;;20.32;61.84
43161;BME280;40968;52.342;5.528;2022-08-21T09:11:28;101648.75;;;21.01;62.00
43161;BME280;40968;52.342;5.528;2022-08-21T09:14:01;101570.50;;;20.50;61.24
43161;BME280;40968;52.342;5.528;2022-08-21T09:16:40;101660.75;;;21.16;61.16
43161;BME280;40968;52.342;5.528;2022-08-21T09:19:35;101556.22;;;20.57;60.07
43161;BME280;40968;52.342;5.528;2022-08-21T09:22:07;101520.06;;;20.38;59.99
43161;BME280;40968;52.342;5.528;2022-08-21T09:24:42;101648.56;;;21.45;60.48
43161;BME280;40968;52.342;5.528;2022-08-21T09:27:13;101628.47;;;21.46;59.73
43161;BME280;40968;52.342;5.528;2022-08-21T09:29:44;101627.78;;;21.44;59.44
43161;BME280;40968;52.342;5.528;2022-08-21T09:32:16;101629.13;;;21.48;59.30
43161;BME280;40968;52.342;5.528;2022-08-21T09:34:55;101540.56;;;20.93;58.65
43161;BME280;40968;52.342;5.528;2022-08-21T09:37:23;101595.75;;;21.38;58.71
43161;BME280;40968;52.342;5.528;2022-08-21T09:39:49;101640.13;;;21.73;58.84
43161;BME280;40968;52.342;5.528;2022-08-21T09:42:22;101651.59;;;21.93;58.12
43161;BME280;40968;52.342;5.528;2022-08-21T09:45:11;101596.84;;;21.70;57.52
43161;BME280;40968;52.342;5.528;2022-08-21T09:47:39;101638.78;;;22.18;56.86
43161;BME280;40968;52.342;5.528;2022-08-21T09:50:13;101627.50;;;22.22;56.65
43161;BME280;40968;52.342;5.528;2022-08-21T09:52:46;101660.63;;;22.51;56.20
43161;BME280;40968;52.342;5.528;2022-08-21T09:55:18;101658.22;;;22.57;55.44
43161;BME280;40968;52.342;5.528;2022-08-21T09:57:59;101585.72;;;22.21;55.34
43161;BME280;40968;52.342;5.528;2022-08-21T10:00:29;101600.88;;;22.32;54.75
43161;BME280;40968;52.342;5.528;2022-08-21T10:03:08;101628.88;;;22.59;54.63
43161;BME280;40968;52.342;5.528;2022-08-21T10:05:37;101608.41;;;22.55;54.16
43161;BME280;40968;52.342;5.528;2022-08-21T10:08:04;101640.75;;;22.82;54.56
43161;BME280;40968;52.342;5.528;2022-08-21T10:10:36;101616.34;;;22.81;53.84
43161;BME280;40968;52.342;5.528;2022-08-21T10:13:06;101601.31;;;22.77;52.95
43161;BME280;40968;52.342;5.528;2022-08-21T10:15:43;101638.63;;;23.01;53.20
43161;BME280;40968;52.342;5.528;2022-08-21T10:18:22;101565.06;;;22.43;52.90
43161;BME280;40968;52.342;5.528;2022-08-21T10:21:01;101623.00;;;22.78;53.38
43161;BME280;40968;52.342;5.528;2022-08-21T10:23:43;101653.28;;;23.08;53.51
43161;BME280;40968;52.342;5.528;2022-08-21T10:26:20;101621.22;;;22.94;52.91
43161;BME280;40968;52.342;5.528;2022-08-21T10:28:55;101555.78;;;22.61;52.11
43161;BME280;40968;52.342;5.528;2022-08-21T10:31:33;101621.50;;;23.15;51.92
43161;BME280;40968;52.342;5.528;2022-08-21T10:34:15;101614.25;;;23.31;51.21
43161;BME280;40968;52.342;5.528;2022-08-21T10:37:03;101646.06;;;23.55;51.26
43161;BME280;40968;52.342;5.528;2022-08-21T10:39:34;101561.88;;;23.11;51.16
43161;BME280;40968;52.342;5.528;2022-08-21T10:42:16;101582.38;;;23.46;50.83
43161;BME280;40968;52.342;5.528;2022-08-21T10:44:59;101584.44;;;23.67;50.39
43161;BME280;40968;52.342;5.528;2022-08-21T10:47:32;101592.50;;;23.84;49.41
43161;BME280;40968;52.342;5.528;2022-08-21T10:50:08;101636.19;;;24.24;49.71
43161;BME280;40968;52.342;5.528;2022-08-21T10:52:48;101635.72;;;24.35;48.43
43161;BME280;40968;52.342;5.528;2022-08-21T10:55:20;101616.53;;;24.20;48.37
43161;BME280;40968;52.342;5.528;2022-08-21T10:57:50;101600.94;;;24.21;48.72
43161;BME280;40968;52.342;5.528;2022-08-21T11:00:22;101633.13;;;24.57;48.14
43161;BME280;40968;52.342;5.528;2022-08-21T11:02:52;101632.09;;;24.73;47.87
43161;BME280;40968;52.342;5.528;2022-08-21T11:05:25;101629.47;;;24.79;47.12
43161;BME280;40968;52.342;5.528;2022-08-21T11:08:02;101540.88;;;24.04;46.47
43161;BME280;40968;52.342;5.528;2022-08-21T11:10:33;101565.03;;;24.15;47.32
43161;BME280;40968;52.342;5.528;2022-08-21T11:13:08;101579.44;;;24.47;47.41
43161;BME280;40968;52.342;5.528;2022-08-21T11:15:43;101568.19;;;24.57;47.14
43161;BME280;40968;52.342;5.528;2022-08-21T11:18:19;101623.13;;;24.94;46.97
43161;BME280;40968;52.342;5.528;2022-08-21T11:20:52;101620.75;;;24.91;47.01
43161;BME280;40968;52.342;5.528;2022-08-21T11:23:27;101558.66;;;24.38;46.92
43161;BME280;40968;52.342;5.528;2022-08-21T11:26:01;101601.72;;;24.44;46.91
43161;BME280;40968;52.342;5.528;2022-08-21T11:28:35;101629.50;;;24.41;47.06
43161;BME280;40968;52.342;5.528;2022-08-21T11:31:12;101634.19;;;24.17;47.39
43161;BME280;40968;52.342;5.528;2022-08-21T11:33:58;101634.31;;;24.01;48.12
43161;BME280;40968;52.342;5.528;2022-08-21T11:36:35;101616.78;;;23.87;48.69
43161;BME280;40968;52.342;5.528;2022-08-21T11:39:15;101574.72;;;23.65;49.12
43161;BME280;40968;52.342;5.528;2022-08-21T11:41:48;101614.72;;;24.12;48.88
43161;BME280;40968;52.342;5.528;2022-08-21T11:44:23;101625.38;;;24.22;48.44
43161;BME280;40968;52.342;5.528;2022-08-21T11:47:02;101607.28;;;24.36;48.19
43161;BME280;40968;52.342;5.528;2022-08-21T11:49:47;101635.13;;;24.78;46.97
43161;BME280;40968;52.342;5.528;2022-08-21T11:52:19;101524.25;;;24.21;47.37
43161;BME280;40968;52.342;5.528;2022-08-21T11:54:52;101623.22;;;24.71;47.40
43161;BME280;40968;52.342;5.528;2022-08-21T11:57:25;101643.56;;;24.76;47.44
43161;BME280;40968;52.342;5.528;2022-08-21T11:59:59;101642.03;;;24.89;47.31
43161;BME280;40968;52.342;5.528;2022-08-21T12:02:29;101570.56;;;24.45;47.11
43161;BME280;40968;52.342;5.528;2022-08-21T12:04:59;101646.91;;;25.08;47.08
43161;BME280;40968;52.342;5.528;2022-08-21T12:07:36;101600.59;;;25.13;45.80
43161;BME280;40968;52.342;5.528;2022-08-21T12:10:07;101628.25;;;25.48;45.90
43161;BME280;40968;52.342;5.528;2022-08-21T12:12:36;101643.16;;;25.82;45.69
43161;BME280;40968;52.342;5.528;2022-08-21T12:15:24;101629.03;;;25.86;43.51
43161;BME280;40968;52.342;5.528;2022-08-21T12:17:54;101635.81;;;26.05;43.91
43161;BME280;40968;52.342;5.528;2022-08-21T12:20:34;101595.16;;;26.00;42.28
43161;BME280;40968;52.342;5.528;2022-08-21T12:23:15;101627.13;;;26.29;41.95
43161;BME280;40968;52.342;5.528;2022-08-21T12:25:46;101581.75;;;26.12;40.76
43161;BME280;40968;52.342;5.528;2022-08-21T12:28:15;101638.84;;;26.17;41.50
43161;BME280;40968;52.342;5.528;2022-08-21T12:30:47;101628.09;;;26.00;41.98
43161;BME280;40968;52.342;5.528;2022-08-21T12:33:23;101619.81;;;25.93;41.83
43161;BME280;40968;52.342;5.528;2022-08-21T12:35:53;101527.56;;;25.12;42.48
43161;BME280;40968;52.342;5.528;2022-08-21T12:38:29;101636.63;;;25.84;42.53
43161;BME280;40968;52.342;5.528;2022-08-21T12:41:00;101620.00;;;25.48;43.10
43161;BME280;40968;52.342;5.528;2022-08-21T12:43:29;101553.47;;;24.88;43.22
43161;BME280;40968;52.342;5.528;2022-08-21T12:45:57;101639.84;;;25.51;43.45
43161;BME280;40968;52.342;5.528;2022-08-21T12:48:29;101620.16;;;25.84;42.97
43161;BME280;40968;52.342;5.528;2022-08-21T12:51:05;101612.03;;;25.97;41.89
43161;BME280;40968;52.342;5.528;2022-08-21T12:53:38;101473.53;;;25.06;40.73
43161;BME280;40968;52.342;5.528;2022-08-21T12:56:11;101641.47;;;26.03;41.51
43161;BME280;40968;52.342;5.528;2022-08-21T12:58:41;101644.00;;;25.83;41.61
43161;BME280;40968;52.342;5.528;2022-08-21T13:01:17;101645.25;;;25.80;42.09
43161;BME280;40968;52.342;5.528;2022-08-21T13:03:46;101643.69;;;25.71;41.44